Time;durP1;ratioP1;P1;durP2;ratioP2;P2;SDS_P1;SDS_P2;PMS_P1;PMS_P2;Temp;Humidity;BMP_temperature;BMP_pressure;BME280_temperature;BME280_humidity;BME280_pressure;Samples;Min_cycle;Max_cycle;Signal;HPM_P1;HPM_P2
2023/09/20 00:01:02;;;;;;;12.73;5.35;;;;;;;-143.21;90.47;71883.81;5015166;28;20207;-80
2023/09/20 00:03:31;;;;;;;7.88;5.05;;;;;;;-143.21;90.79;71891.72;5023293;28;20239;-79
2023/09/20 00:05:59;;;;;;;8.23;5.00;;;;;;;-143.21;90.83;71893.72;5030724;28;20268;-80
2023/09/20 00:08:26;;;;;;;8.27;5.55;;;;;;;-143.21;90.76;71885.78;5023505;28;20662;-80
2023/09/20 00:10:53;;;;;;;7.68;5.28;;;;;;;-143.21;90.89;71899.66;5024921;28;20209;-80
2023/09/20 00:13:19;;;;;;;9.27;5.50;;;;;;;-143.21;90.52;71887.78;5024321;28;20199;-80
2023/09/20 00:15:46;;;;;;;8.73;5.95;;;;;;;-143.21;90.46;71893.72;5027399;28;20225;-79
2023/09/20 00:18:13;;;;;;;8.40;5.60;;;;;;;-143.21;90.62;71899.66;5024860;28;20222;-80
2023/09/20 00:20:42;;;;;;;9.15;5.80;;;;;;;-143.21;91.14;71907.59;5025815;28;20786;-79
2023/09/20 00:23:09;;;;;;;8.07;5.40;;;;;;;-143.21;91.29;71901.66;5021458;28;20206;-79
2023/09/20 00:25:36;;;;;;;7.93;5.60;;;;;;;-143.21;91.34;71909.56;5028773;28;20203;-79
2023/09/20 00:28:03;;;;;;;7.70;5.78;;;;;;;-143.21;91.39;71907.59;5030387;28;20198;-79
2023/09/20 00:30:30;;;;;;;7.95;5.18;;;;;;;-143.21;91.18;71917.50;5030528;28;20289;-79
2023/09/20 00:32:57;;;;;;;8.25;5.70;;;;;;;-143.21;91.08;71923.47;5026935;28;20684;-79
2023/09/20 00:35:24;;;;;;;8.73;5.50;;;;;;;-143.21;90.24;71917.50;5030078;28;20658;-78
2023/09/20 00:37:52;;;;;;;7.88;6.07;;;;;;;-143.21;90.08;71921.47;5027457;28;20203;-79
2023/09/20 00:40:21;;;;;;;9.18;6.55;;;;;;;-143.21;90.55;71919.50;5020118;28;20637;-79
2023/09/20 00:42:50;;;;;;;11.30;7.20;;;;;;;-143.21;91.00;71911.56;5030356;28;20702;-78
2023/09/20 00:45:17;;;;;;;11.32;7.88;;;;;;;-143.21;90.63;71909.56;5027386;28;20257;-78
2023/09/20 00:47:46;;;;;;;14.52;9.52;;;;;;;-143.21;89.90;71913.53;5030168;28;20230;-78
2023/09/20 00:50:14;;;;;;;19.90;10.93;;;;;;;-143.21;90.63;71935.34;5026622;28;20210;-78
2023/09/20 00:52:42;;;;;;;14.63;10.73;;;;;;;-143.21;91.78;71961.13;5026497;28;20329;-78
2023/09/20 00:55:15;;;;;;;16.63;12.32;;;;;;;-143.21;93.04;71965.09;5030013;28;20203;-78
2023/09/20 00:57:46;;;;;;;18.92;13.35;;;;;;;-143.21;93.23;71963.13;5029716;28;20226;-78
2023/09/20 01:00:21;;;;;;;22.48;14.35;;;;;;;-143.21;93.07;71978.97;5027416;28;20217;-78
2023/09/20 01:02:50;;;;;;;21.87;13.83;;;;;;;-143.21;93.49;71984.94;5026865;28;20708;-78
2023/09/20 01:05:21;;;;;;;18.83;13.60;;;;;;;-143.21;94.40;71992.88;5024114;28;20623;-78
2023/09/20 01:07:50;;;;;;;20.60;13.18;;;;;;;-143.21;94.46;71984.94;5025966;28;20277;-78
2023/09/20 01:10:22;;;;;;;17.80;11.85;;;;;;;-143.21;94.68;71986.91;5025784;28;20302;-78
2023/09/20 01:12:52;;;;;;;27.02;14.50;;;;;;;-143.21;94.07;71990.88;5026535;28;20195;-78
2023/09/20 01:15:19;;;;;;;19.17;13.55;;;;;;;-143.21;93.93;71990.88;5027080;28;20665;-78
2023/09/20 01:17:46;;;;;;;21.88;13.95;;;;;;;-143.21;94.49;71990.88;5029975;28;20654;-78
2023/09/20 01:20:18;;;;;;;21.60;14.35;;;;;;;-143.21;94.61;71982.94;5023859;28;20219;-77
2023/09/20 01:22:47;;;;;;;20.33;14.05;;;;;;;-143.21;94.41;71977.00;5026585;28;20289;-78
2023/09/20 01:25:22;;;;;;;23.43;14.43;;;;;;;-143.21;94.73;71982.94;5029001;28;20698;-79
2023/09/20 01:27:49;;;;;;;21.42;14.13;;;;;;;-143.21;94.70;71978.97;5026121;28;20222;-78
2023/09/20 01:30:17;;;;;;;21.17;14.68;;;;;;;-143.21;94.39;71975.00;5023065;28;20225;-80
2023/09/20 01:32:43;;;;;;;22.08;14.00;;;;;;;-143.21;93.79;71978.97;5022321;28;20298;-77
2023/09/20 01:35:11;;;;;;;22.23;14.35;;;;;;;-143.21;94.16;71982.94;5029441;28;20233;-78
2023/09/20 01:37:38;;;;;;;23.33;14.43;;;;;;;-143.21;94.34;71994.84;5021884;28;20694;-77
2023/09/20 01:40:15;;;;;;;23.63;14.38;;;;;;;-143.21;94.20;71992.88;5029302;28;20607;-77
2023/09/20 01:42:45;;;;;;;22.05;15.15;;;;;;;-143.21;93.86;71990.88;5029099;28;21338;-78
2023/09/20 01:45:15;;;;;;;19.60;14.10;;;;;;;-143.21;94.02;71994.84;5025706;28;20566;-79
2023/09/20 01:47:44;;;;;;;22.88;14.25;;;;;;;-143.21;93.64;71992.88;5022954;28;20237;-79
2023/09/20 01:50:12;;;;;;;23.08;14.05;;;;;;;-143.21;93.20;71992.88;5028186;28;20287;-77
2023/09/20 01:52:39;;;;;;;22.67;13.82;;;;;;;-143.21;93.83;72000.78;5028550;28;20206;-78
2023/09/20 01:55:11;;;;;;;22.88;14.73;;;;;;;-143.21;93.96;71996.81;5028684;28;20202;-79
2023/09/20 01:57:38;;;;;;;19.58;13.20;;;;;;;-143.21;94.01;71996.81;5021579;28;20202;-79
2023/09/20 02:00:22;;;;;;;21.25;14.13;;;;;;;-143.21;93.91;72004.75;5025011;28;20206;-78
2023/09/20 02:02:49;;;;;;;22.88;14.35;;;;;;;-143.21;93.78;72004.75;5025373;28;20234;-77
2023/09/20 02:05:18;;;;;;;23.80;14.95;;;;;;;-143.21;93.67;72002.78;5028702;28;20233;-77
2023/09/20 02:07:46;;;;;;;22.38;13.80;;;;;;;-143.21;93.85;72002.78;5028511;28;20252;-77
2023/09/20 02:10:16;;;;;;;22.67;14.02;;;;;;;-143.21;93.72;71998.81;5020870;28;20218;-78
2023/09/20 02:12:47;;;;;;;25.05;14.48;;;;;;;-143.21;93.87;72006.75;5024049;28;20231;-78
2023/09/20 02:15:14;;;;;;;23.87;14.23;;;;;;;-143.21;94.19;72008.72;5028286;28;20641;-78
2023/09/20 02:17:41;;;;;;;22.92;14.75;;;;;;;-143.21;95.19;72014.69;5027912;28;20229;-78
2023/09/20 02:20:12;;;;;;;23.70;14.52;;;;;;;-143.21;95.68;72018.63;5028424;28;20209;-78
2023/09/20 02:22:41;;;;;;;30.55;15.45;;;;;;;-143.21;95.83;72016.66;5027543;28;20293;-78
2023/09/20 02:25:12;;;;;;;22.83;15.38;;;;;;;-143.21;95.36;72004.75;5023312;28;20207;-78
2023/09/20 02:27:41;;;;;;;24.10;15.02;;;;;;;-143.21;95.13;72012.69;5023775;28;20721;-77
2023/09/20 02:30:10;;;;;;;23.87;14.47;;;;;;;-143.21;95.09;72010.72;5027743;28;20253;-78
2023/09/20 02:32:37;;;;;;;27.70;15.50;;;;;;;-143.21;94.61;72008.72;5024434;28;20214;-78
2023/09/20 02:35:06;;;;;;;29.60;15.27;;;;;;;-143.21;94.67;72012.69;5024422;28;20199;-78
2023/09/20 02:37:33;;;;;;;26.67;15.32;;;;;;;-143.21;94.71;72018.63;5027396;28;20215;-77
2023/09/20 02:40:00;;;;;;;25.50;16.33;;;;;;;-143.21;94.84;72018.63;5026699;28;20213;-78
2023/09/20 02:42:27;;;;;;;27.63;16.10;;;;;;;-143.21;94.83;72014.69;5021387;28;20207;-77
2023/09/20 02:44:56;;;;;;;24.23;14.30;;;;;;;-143.21;94.87;72020.63;5024360;28;20198;-77
2023/09/20 02:47:24;;;;;;;25.25;15.05;;;;;;;-143.21;94.92;72022.59;5024085;28;20314;-77
2023/09/20 02:49:51;;;;;;;25.48;14.63;;;;;;;-143.21;95.03;72028.56;5024533;28;20257;-77
2023/09/20 02:52:18;;;;;;;23.25;13.85;;;;;;;-143.21;95.04;72036.50;5024803;28;20214;-78
2023/09/20 02:54:45;;;;;;;23.33;14.50;;;;;;;-143.21;94.89;72036.50;5023776;28;20265;-78
2023/09/20 02:57:12;;;;;;;20.37;13.53;;;;;;;-143.21;95.09;72034.50;5022187;28;20349;-78
2023/09/20 02:59:39;;;;;;;21.43;13.93;;;;;;;-143.21;95.12;72032.53;5022897;28;20214;-78
2023/09/20 03:02:08;;;;;;;24.58;13.80;;;;;;;-143.21;94.88;72024.59;5023712;28;20234;-78
2023/09/20 03:04:37;;;;;;;24.27;15.63;;;;;;;-143.21;94.57;72018.63;5024321;28;20234;-78
2023/09/20 03:07:06;;;;;;;22.63;14.37;;;;;;;-143.21;94.31;72018.63;5024592;28;20316;-79
2023/09/20 03:09:36;;;;;;;26.55;15.23;;;;;;;-143.21;94.24;72008.72;5023880;28;20207;-78
2023/09/20 03:12:05;;;;;;;23.88;14.40;;;;;;;-143.21;94.25;72012.69;5028011;28;20226;-79
2023/09/20 03:14:35;;;;;;;24.20;14.53;;;;;;;-143.21;94.10;72010.72;5023815;28;20210;-79
2023/09/20 03:17:02;;;;;;;23.40;14.37;;;;;;;-143.21;94.05;72012.69;5024073;28;20199;-77
2023/09/20 03:19:31;;;;;;;21.95;13.13;;;;;;;-143.21;93.91;72012.69;5027347;28;20240;-78
2023/09/20 03:21:59;;;;;;;20.30;12.70;;;;;;;-143.21;94.02;72006.75;5020807;28;20235;-77
2023/09/20 03:24:26;;;;;;;19.75;11.13;;;;;;;-143.21;93.66;72008.72;5027160;28;20210;-78
2023/09/20 03:26:54;;;;;;;20.38;11.40;;;;;;;-143.21;93.09;72014.69;5020330;28;20206;-78
2023/09/20 03:29:23;;;;;;;23.80;12.45;;;;;;;-143.21;93.40;72026.56;5028047;28;20273;-78
2023/09/20 03:31:50;;;;;;;21.15;12.02;;;;;;;-143.21;93.68;72036.50;5017498;28;20203;-78
2023/09/20 03:34:20;;;;;;;23.17;11.60;;;;;;;-143.21;93.70;72046.41;5027801;28;20202;-77
2023/09/20 03:36:50;;;;;;;20.75;10.98;;;;;;;-143.21;94.04;72046.41;5027167;28;20230;-79
2023/09/20 03:39:22;;;;;;;19.13;11.33;;;;;;;-143.21;93.79;72042.44;5021639;28;20670;-78
2023/09/20 03:41:51;;;;;;;17.80;10.77;;;;;;;-143.21;93.83;72044.41;5031165;28;20562;-80
2023/09/20 03:44:19;;;;;;;17.07;10.07;;;;;;;-143.21;94.19;72048.38;5021277;28;20206;-80
2023/09/20 03:46:47;;;;;;;20.53;11.40;;;;;;;-143.21;94.59;72062.25;5020319;28;20245;-80
2023/09/20 03:49:14;;;;;;;18.43;11.63;;;;;;;-143.21;94.64;72054.34;5023925;28;20207;-80
2023/09/20 03:51:42;;;;;;;20.87;11.73;;;;;;;-143.21;94.52;72062.25;5030103;28;20280;-78
2023/09/20 03:54:10;;;;;;;25.00;11.87;;;;;;;-143.21;94.21;72060.28;5031091;28;20278;-78
2023/09/20 03:56:37;;;;;;;20.73;11.97;;;;;;;-143.21;94.23;72066.22;5030905;28;20209;-77
2023/09/20 03:59:04;;;;;;;23.30;12.60;;;;;;;-143.21;94.30;72068.22;5031129;28;20195;-78
2023/09/20 04:01:32;;;;;;;24.43;13.73;;;;;;;-143.21;94.59;72064.25;5026739;28;20214;-78
2023/09/20 04:03:59;;;;;;;24.37;13.53;;;;;;;-143.21;94.44;72064.25;5023124;28;20262;-78
2023/09/20 04:06:29;;;;;;;24.37;13.77;;;;;;;-143.21;94.55;72070.19;5029958;28;20203;-80
2023/09/20 04:08:56;;;;;;;24.33;14.33;;;;;;;-143.21;94.10;72068.22;5026669;28;20215;-80
2023/09/20 04:11:24;;;;;;;23.17;13.07;;;;;;;-143.21;93.97;72070.19;5024572;28;20203;-80
2023/09/20 04:13:52;;;;;;;23.23;14.20;;;;;;;-143.21;93.94;72070.19;5020969;28;20211;-80
2023/09/20 04:16:20;;;;;;;21.40;13.03;;;;;;;-143.21;94.67;72078.13;5021012;28;20203;-80
2023/09/20 04:18:48;;;;;;;22.10;13.20;;;;;;;-143.21;94.32;72076.16;5030618;28;20198;-80
2023/09/20 04:21:15;;;;;;;24.63;13.20;;;;;;;-143.21;94.03;72078.13;5031053;28;20202;-79
2023/09/20 04:23:42;;;;;;;22.83;12.63;;;;;;;-143.21;94.41;72082.09;5022355;28;20207;-79
2023/09/20 04:26:08;;;;;;;23.90;11.90;;;;;;;-143.21;94.78;72082.09;5023908;28;20208;-81
2023/09/20 04:28:37;;;;;;;23.23;12.60;;;;;;;-143.21;95.29;72088.03;5021297;28;20234;-80
2023/09/20 04:31:04;;;;;;;23.13;13.67;;;;;;;-143.21;95.38;72088.03;5029104;28;20207;-79
2023/09/20 04:33:32;;;;;;;26.57;14.40;;;;;;;-143.21;95.64;72094.00;5030055;28;20206;-79
2023/09/20 04:36:00;;;;;;;28.67;16.13;;;;;;;-143.21;95.57;72090.03;5019006;28;20670;-78
2023/09/20 04:38:27;;;;;;;32.00;17.50;;;;;;;-143.21;95.68;72094.00;5023796;28;20207;-78
2023/09/20 04:40:56;;;;;;;31.43;18.30;;;;;;;-143.21;95.46;72090.03;5024410;28;20206;-79
2023/09/20 04:43:23;;;;;;;32.63;18.67;;;;;;;-143.21;95.30;72086.06;5017090;28;20613;-78
2023/09/20 04:45:51;;;;;;;34.00;18.47;;;;;;;-143.21;95.30;72086.06;5023282;28;20216;-78
2023/09/20 04:48:17;;;;;;;33.90;18.30;;;;;;;-143.21;95.09;72084.06;5029720;28;20698;-78
2023/09/20 04:50:45;;;;;;;32.43;18.43;;;;;;;-143.21;95.28;72084.06;5022406;28;20330;-78
2023/09/20 04:53:13;;;;;;;33.03;18.43;;;;;;;-143.21;95.62;72080.13;5030033;28;20261;-79
2023/09/20 04:55:40;;;;;;;31.97;19.33;;;;;;;-143.21;94.83;72070.19;5022539;28;21036;-79
2023/09/20 04:58:07;;;;;;;31.23;19.07;;;;;;;-143.21;94.49;72072.19;5026662;28;20198;-77
2023/09/20 05:00:37;;;;;;;36.77;19.30;;;;;;;-143.21;94.64;72070.19;5024998;28;20203;-78
2023/09/20 05:03:07;;;;;;;33.27;19.80;;;;;;;-143.21;95.04;72074.16;5021718;28;20239;-78
2023/09/20 05:05:34;;;;;;;40.87;21.37;;;;;;;-143.21;95.58;72066.22;5021666;28;20579;-79
2023/09/20 05:08:01;;;;;;;35.67;20.67;;;;;;;-143.21;95.63;72054.34;5027041;28;20245;-80
2023/09/20 05:10:28;;;;;;;32.43;19.00;;;;;;;-143.21;95.84;72054.34;5020337;28;20211;-81
2023/09/20 05:12:55;;;;;;;34.63;20.20;;;;;;;-143.21;95.96;72058.31;5023182;28;20203;-82
2023/09/20 05:15:23;;;;;;;31.50;19.93;;;;;;;-143.21;95.95;72048.38;5016798;28;20210;-82
2023/09/20 05:17:50;;;;;;;31.63;20.53;;;;;;;-143.21;96.10;72048.38;5030905;28;20207;-81
2023/09/20 05:20:18;;;;;;;33.23;22.13;;;;;;;-143.21;96.12;72042.44;5016056;28;20253;-80
2023/09/20 05:22:45;;;;;;;33.67;21.63;;;;;;;-143.21;95.75;72034.50;5019186;28;20226;-79
2023/09/20 05:25:12;;;;;;;31.08;20.52;;;;;;;-143.21;95.20;72026.56;5023090;28;20221;-80
2023/09/20 05:27:39;;;;;;;31.77;19.67;;;;;;;-143.21;94.59;72026.56;5022916;28;20268;-80
2023/09/20 05:30:18;;;;;;;31.17;20.88;;;;;;;-143.21;94.05;72012.69;5016822;28;20199;-81
2023/09/20 05:32:53;;;;;;;32.42;19.67;;;;;;;-143.21;93.40;72004.75;5026529;28;20741;-81
2023/09/20 05:35:21;;;;;;;31.88;20.65;;;;;;;-143.21;93.21;72006.75;5019964;28;20198;-79
2023/09/20 05:37:48;;;;;;;31.95;20.77;;;;;;;-143.21;91.66;72002.78;5021524;28;20207;-80
2023/09/20 05:40:17;;;;;;;30.35;20.92;;;;;;;-143.21;91.14;72010.72;5019209;28;20204;-81
2023/09/20 05:42:44;;;;;;;32.47;20.92;;;;;;;-143.21;91.42;72014.69;5023771;28;20215;-79
2023/09/20 05:45:12;;;;;;;35.45;21.17;;;;;;;-143.21;91.25;72008.72;5022704;28;20206;-80
2023/09/20 05:47:39;;;;;;;29.85;20.23;;;;;;;-143.21;91.10;72010.72;5023082;28;20269;-79
2023/09/20 05:50:10;;;;;;;30.90;20.77;;;;;;;-143.21;91.07;72008.72;5021609;28;20613;-79
2023/09/20 05:52:40;;;;;;;30.70;21.05;;;;;;;-143.21;91.21;72016.66;5020312;28;20203;-79
2023/09/20 05:55:11;;;;;;;36.33;21.02;;;;;;;-143.21;91.37;72014.69;5021249;28;20195;-80
2023/09/20 05:57:39;;;;;;;29.35;20.27;;;;;;;-143.21;91.57;72014.69;5023919;28;20210;-80
2023/09/20 06:00:12;;;;;;;35.08;20.35;;;;;;;-143.21;91.22;72014.69;5020659;28;20211;-80
2023/09/20 06:02:41;;;;;;;31.77;20.60;;;;;;;-143.21;91.01;72014.69;5022110;28;20235;-78
2023/09/20 06:05:11;;;;;;;37.88;22.63;;;;;;;-143.21;90.24;72008.72;5023361;28;20213;-77
2023/09/20 06:07:40;;;;;;;37.47;23.17;;;;;;;-143.21;90.11;72014.69;5021745;28;20256;-79
2023/09/20 06:10:08;;;;;;;40.70;23.77;;;;;;;-143.21;90.54;72020.63;5016251;28;20211;-79
2023/09/20 06:12:35;;;;;;;36.80;23.85;;;;;;;-143.21;91.13;72034.50;5020812;28;20205;-79
2023/09/20 06:15:02;;;;;;;39.15;24.52;;;;;;;-143.21;90.80;72028.56;5019497;28;20626;-79
2023/09/20 06:17:31;;;;;;;36.15;23.42;;;;;;;-143.21;91.10;72032.53;5016386;28;20203;-79
2023/09/20 06:19:58;;;;;;;37.27;24.80;;;;;;;-143.21;91.96;72038.47;5024918;28;20235;-79
2023/09/20 06:22:28;;;;;;;38.90;25.35;;;;;;;-143.21;91.89;72038.47;5024988;28;20207;-78
2023/09/20 06:24:58;;;;;;;41.08;25.52;;;;;;;-143.21;91.33;72036.50;5017759;28;20234;-78
2023/09/20 06:27:25;;;;;;;38.85;24.58;;;;;;;-143.21;90.47;72034.50;5015723;28;20210;-78
2023/09/20 06:29:52;;;;;;;38.27;24.50;;;;;;;-143.21;90.74;72038.47;5018519;28;20226;-78
2023/09/20 06:32:20;;;;;;;38.65;25.02;;;;;;;-143.21;91.21;72030.53;5021191;28;20658;-79
2023/09/20 06:34:47;;;;;;;40.55;24.67;;;;;;;-143.21;91.50;72022.59;5017850;28;20225;-79
2023/09/20 06:37:14;;;;;;;36.40;25.15;;;;;;;-143.21;90.85;72006.75;5014698;28;20281;-79
2023/09/20 06:39:43;;;;;;;35.22;22.90;;;;;;;-143.21;90.75;71994.84;5016675;28;20203;-79
2023/09/20 06:42:12;;;;;;;46.95;25.42;;;;;;;-143.21;90.83;71986.91;5025380;28;20203;-79
2023/09/20 06:44:39;;;;;;;36.65;23.75;;;;;;;-143.21;90.57;71980.97;5017471;28;20282;-79
2023/09/20 06:47:08;;;;;;;35.95;24.10;;;;;;;-143.21;89.92;71967.09;5020944;28;20648;-79
2023/09/20 06:49:38;;;;;;;40.75;24.00;;;;;;;-143.21;89.95;71955.19;5011617;28;20310;-80
2023/09/20 06:52:06;;;;;;;38.22;24.75;;;;;;;-143.21;89.57;71939.31;5017428;28;20211;-79
2023/09/20 06:54:35;;;;;;;38.25;25.10;;;;;;;-143.21;89.45;71931.38;5021269;28;20209;-79
2023/09/20 06:57:03;;;;;;;39.63;25.05;;;;;;;-143.21;89.21;71927.44;5022573;28;20273;-79
2023/09/20 06:59:33;;;;;;;44.90;24.52;;;;;;;-143.21;89.00;71929.41;5025943;28;20214;-79
2023/09/20 07:02:00;;;;;;;41.13;25.05;;;;;;;-143.21;88.74;71917.50;5016370;28;20690;-78
2023/09/20 07:04:27;;;;;;;39.95;24.08;;;;;;;-143.21;88.33;71909.56;5023697;28;20206;-78
2023/09/20 07:06:55;;;;;;;42.08;25.13;;;;;;;-143.21;87.43;71905.63;5017546;28;20203;-79
2023/09/20 07:09:22;;;;;;;41.65;24.33;;;;;;;-143.21;86.52;71895.69;5024821;28;20226;-78
2023/09/20 07:11:50;;;;;;;36.97;24.48;;;;;;;-143.21;86.15;71889.75;5028084;28;20199;-79
2023/09/20 07:14:20;;;;;;;40.22;23.33;;;;;;;-143.21;86.13;71881.81;5027960;28;20294;-79
2023/09/20 07:16:49;;;;;;;46.00;24.98;;;;;;;-143.21;86.25;71887.78;5014675;28;20200;-79
2023/09/20 07:19:18;;;;;;;40.15;24.13;;;;;;;-143.21;86.48;71891.72;5017592;28;20652;-79
2023/09/20 07:21:45;;;;;;;40.38;24.17;;;;;;;-143.21;86.56;71895.69;5024267;28;20235;-78
2023/09/20 07:24:13;;;;;;;42.25;25.45;;;;;;;-143.21;86.16;71893.72;5024301;28;20211;-79
2023/09/20 07:26:43;;;;;;;36.45;22.17;;;;;;;-143.21;85.43;71889.75;5022730;28;20928;-79
2023/09/20 07:29:11;;;;;;;35.13;23.13;;;;;;;-143.21;84.20;71885.78;5027607;28;20696;-78
2023/09/20 07:31:38;;;;;;;36.55;22.92;;;;;;;-143.21;84.53;71889.75;5013870;28;20203;-81
2023/09/20 07:34:07;;;;;;;38.13;21.58;;;;;;;-143.21;84.18;71881.81;5028496;28;20199;-82
2023/09/20 07:36:34;;;;;;;36.67;21.77;;;;;;;-143.21;83.93;71871.91;5023515;28;20203;-83
2023/09/20 07:39:05;;;;;;;33.38;21.10;;;;;;;-143.21;82.97;71854.06;5023887;28;20222;-83
2023/09/20 07:41:32;;;;;;;35.10;22.40;;;;;;;-143.21;83.02;71850.09;5026763;28;20254;-81
2023/09/20 07:43:59;;;;;;;30.10;20.48;;;;;;;-143.21;82.54;71844.16;5021670;28;20207;-82
2023/09/20 07:46:25;;;;;;;31.50;19.83;;;;;;;-143.21;81.71;71832.25;5017792;28;20207;-82
2023/09/20 07:48:52;;;;;;;31.05;20.13;;;;;;;-143.21;81.94;71830.25;5018139;28;20693;-82
2023/09/20 07:51:23;;;;;;;26.38;18.83;;;;;;;-143.21;81.81;71820.34;5022214;28;20210;-86
2023/09/20 07:53:53;;;;;;;34.75;20.17;;;;;;;-143.21;80.54;71802.50;5011865;28;20542;-85
2023/09/20 07:56:21;;;;;;;31.95;19.10;;;;;;;-143.21;80.70;71800.53;5019001;28;20230;-85
2023/09/20 07:58:48;;;;;;;31.67;21.23;;;;;;;-143.21;80.86;71786.63;5024852;28;20198;-85
2023/09/20 08:01:17;;;;;;;33.22;20.13;;;;;;;-143.21;80.60;71782.69;5012891;28;20584;-82
2023/09/20 08:03:50;;;;;;;32.67;20.25;;;;;;;-143.21;80.77;71792.59;5020516;28;20241;-83
2023/09/20 08:06:17;;;;;;;29.67;19.23;;;;;;;-143.21;79.83;71788.63;5024951;28;20198;-83
2023/09/20 08:08:46;;;;;;;30.40;20.13;;;;;;;-143.21;80.24;71788.63;5018167;28;21073;-82
2023/09/20 08:11:12;;;;;;;28.45;19.15;;;;;;;-143.21;80.00;71788.63;5017497;28;21098;-85
2023/09/20 08:13:39;;;;;;;31.48;20.27;;;;;;;-143.21;80.59;71786.63;5027194;28;20217;-81
2023/09/20 08:16:09;;;;;;;35.33;19.98;;;;;;;-143.21;80.95;71792.59;5020973;28;20638;-84
2023/09/20 08:21:20;;;;;;;30.00;19.40;;;;;;;-143.21;80.34;71790.59;5024624;28;20198;-81
2023/09/20 08:59:52;;;;;;;24.60;15.68;;;;;;;-143.21;76.33;71626.03;5014361;28;20291;-83
2023/09/20 09:02:19;;;;;;;24.20;16.88;;;;;;;-143.21;75.96;71604.22;5020974;28;20309;-83
2023/09/20 09:04:47;;;;;;;19.45;12.65;;;;;;;-143.21;74.69;71580.44;5023822;28;20228;-84
2023/09/20 09:07:17;;;;;;;21.10;13.98;;;;;;;-143.21;74.15;71554.66;5017899;28;20215;-81
2023/09/20 09:09:45;;;;;;;23.77;14.63;;;;;;;-143.21;72.96;71534.81;5023990;28;20230;-80
2023/09/20 09:12:14;;;;;;;24.45;13.75;;;;;;;-143.21;72.96;71505.09;5014081;28;20593;-80
2023/09/20 09:14:41;;;;;;;25.08;13.95;;;;;;;-143.21;71.79;71481.28;5016740;28;20207;-80
2023/09/20 09:17:10;;;;;;;23.52;13.10;;;;;;;-143.21;70.79;71449.56;5021744;28;20206;-80
2023/09/20 09:19:38;;;;;;;27.98;13.32;;;;;;;-143.21;70.03;71421.81;5020372;28;20204;-80
2023/09/20 09:22:05;;;;;;;21.63;12.02;;;;;;;-143.21;68.99;71398.03;5018004;28;20257;-80
2023/09/20 09:24:43;;;;;;;17.35;11.43;;;;;;;-143.21;67.30;71376.22;5022778;28;20230;-80
2023/09/20 09:27:10;;;;;;;15.88;10.57;;;;;;;-143.21;66.50;71356.38;5021740;28;20213;-81
2023/09/20 09:29:39;;;;;;;21.40;11.23;;;;;;;-143.21;64.80;71336.56;5020108;28;20230;-82
2023/09/20 09:32:06;;;;;;;14.98;10.55;;;;;;;-143.21;63.72;71324.66;5025453;28;20207;-82
2023/09/20 09:34:34;;;;;;;14.13;10.02;;;;;;;-143.21;64.46;71300.88;5019118;28;20644;-82
2023/09/20 09:37:00;;;;;;;16.45;9.10;;;;;;;-143.21;63.80;71279.06;5016792;28;20560;-80
2023/09/20 09:39:29;;;;;;;11.85;8.85;;;;;;;-143.21;62.74;71251.31;5024482;28;20203;-82
2023/09/20 09:41:57;;;;;;;15.77;9.98;;;;;;;-143.21;62.12;71223.56;5026872;28;20751;-82
2023/09/20 09:44:25;;;;;;;14.75;9.93;;;;;;;-143.21;61.70;71205.72;5022047;28;20225;-82
2023/09/20 09:46:54;;;;;;;16.70;9.20;;;;;;;-143.21;61.91;71181.94;5020291;28;20203;-82
2023/09/20 09:49:21;;;;;;;19.15;9.50;;;;;;;-143.21;60.41;71150.22;5023398;28;20237;-83
2023/09/20 09:51:53;;;;;;;17.75;8.35;;;;;;;-143.21;60.05;71116.50;5026251;28;20206;-83
2023/09/20 09:54:21;;;;;;;12.40;9.18;;;;;;;-143.21;59.50;71090.72;5022859;28;20217;-82
2023/09/20 09:56:49;;;;;;;19.58;8.43;;;;;;;-143.21;58.88;71062.97;5018248;28;20294;-80
2023/09/20 09:59:16;;;;;;;14.45;8.50;;;;;;;-143.21;57.92;71047.13;5011560;28;20204;-81
2023/09/20 10:01:45;;;;;;;17.92;8.35;;;;;;;-143.21;57.23;71027.28;5020379;28;20608;-83
2023/09/20 10:04:17;;;;;;;12.00;8.05;;;;;;;-143.21;56.49;70993.59;5022870;28;20246;-82
2023/09/20 10:06:52;;;;;;;11.70;7.82;;;;;;;-143.21;54.25;70977.72;5022431;28;20215;-83
2023/09/20 10:09:24;;;;;;;11.75;6.82;;;;;;;-143.21;53.95;70955.94;5022789;28;20210;-83
2023/09/20 10:11:52;;;;;;;12.80;5.45;;;;;;;-143.21;52.51;70949.97;5012764;28;20214;-83
2023/09/20 10:14:22;;;;;;;10.48;5.80;;;;;;;-143.21;52.21;70932.13;5019562;28;20728;-83
2023/09/20 10:16:50;;;;;;;11.68;5.85;;;;;;;-143.21;52.32;70896.47;5022739;28;20215;-83
2023/09/20 10:19:18;;;;;;;15.30;5.15;;;;;;;-143.21;50.52;70860.78;5022793;28;20203;-83
2023/09/20 10:22:10;;;;;;;8.77;5.20;;;;;;;-143.21;50.81;70835.00;5024731;28;20219;-83
2023/09/20 10:24:50;;;;;;;6.47;4.38;;;;;;;-143.21;49.97;70827.06;5001640;28;20211;-82
2023/09/20 10:27:19;;;;;;;5.80;3.88;;;;;;;-143.21;49.15;70813.19;5023099;28;20260;-82
2023/09/20 10:30:00;;;;;;;6.97;4.10;;;;;;;-143.21;48.65;70805.28;5024784;28;20235;-82
2023/09/20 10:32:33;;;;;;;9.82;4.63;;;;;;;-143.21;49.39;70781.50;5016400;28;20252;-83
2023/09/20 10:35:22;;;;;;;7.28;4.30;;;;;;;-143.21;47.90;70733.91;5020134;28;20286;-84
2023/09/20 10:38:31;;;;;;;8.27;3.80;;;;;;;-143.21;46.36;70700.22;5016033;28;20219;-83
2023/09/20 10:41:05;;;;;;;6.38;3.88;;;;;;;-143.21;46.31;70708.16;5009632;28;20203;-81
2023/09/20 10:44:02;;;;;;;6.45;3.60;;;;;;;-143.21;45.13;70694.25;5024465;28;20229;-84
2023/09/20 10:46:36;;;;;;;4.60;3.83;;;;;;;-143.21;45.32;70678.41;5016180;28;20217;-84
2023/09/20 10:49:05;;;;;;;7.90;4.32;;;;;;;-143.21;44.90;70664.53;5023620;28;20190;-83
2023/09/20 10:51:48;;;;;;;7.68;3.72;;;;;;;-143.21;45.92;70668.50;5018368;28;20212;-83
2023/09/20 10:54:23;;;;;;;8.57;4.00;;;;;;;-143.21;45.12;70620.94;5023217;28;20277;-84
2023/09/20 10:57:12;;;;;;;6.45;3.92;;;;;;;-143.21;44.04;70577.31;5022623;28;20245;-84
2023/09/20 10:59:45;;;;;;;7.57;3.50;;;;;;;-143.21;44.04;70545.59;5020890;28;20203;-86
2023/09/20 11:02:16;;;;;;;12.07;4.00;;;;;;;-143.21;42.22;70515.88;5018016;28;20729;-84
2023/09/20 11:04:46;;;;;;;4.53;3.22;;;;;;;-143.21;42.07;70488.13;5021789;28;20653;-83
2023/09/20 11:07:18;;;;;;;10.07;3.50;;;;;;;-143.21;41.50;70448.47;5018150;28;20275;-85
2023/09/20 11:09:48;;;;;;;11.80;3.30;;;;;;;-143.21;41.70;70400.91;5020796;28;20321;-84
2023/09/20 11:12:15;;;;;;;5.10;2.97;;;;;;;-143.21;39.55;70365.25;5021392;28;20630;-83
2023/09/20 11:14:47;;;;;;;6.68;3.10;;;;;;;-143.21;39.55;70327.56;5019070;28;20238;-83
2023/09/20 11:17:16;;;;;;;10.00;3.20;;;;;;;-143.21;39.40;70311.72;5021870;28;20230;-84
2023/09/20 11:19:43;;;;;;;7.60;3.45;;;;;;;-143.21;38.70;70325.59;5009766;28;20214;-84
2023/09/20 11:22:10;;;;;;;6.82;3.15;;;;;;;-143.21;38.50;70291.91;5017709;28;20293;-84
2023/09/20 11:24:41;;;;;;;11.93;3.60;;;;;;;-143.21;38.36;70258.22;5024823;28;20268;-83
2023/09/20 11:27:10;;;;;;;10.23;3.38;;;;;;;-143.21;37.11;70230.47;5018820;28;20578;-83
2023/09/20 11:29:43;;;;;;;8.35;3.20;;;;;;;-143.21;37.97;70230.47;5025816;28;20230;-82
2023/09/20 11:32:11;;;;;;;6.95;3.78;;;;;;;-143.21;37.71;70258.22;5022367;28;20209;-82
2023/09/20 11:34:59;;;;;;;6.18;3.20;;;;;;;-143.21;37.15;70270.09;5018750;28;20198;-82
2023/09/20 11:37:31;;;;;;;8.68;3.28;;;;;;;-143.21;37.51;70285.97;5021876;28;20265;-82
2023/09/20 11:40:03;;;;;;;5.32;3.47;;;;;;;-143.21;37.45;70287.94;5021992;28;20674;-82
2023/09/20 11:42:43;;;;;;;8.00;3.28;;;;;;;-143.21;37.28;70282.00;5019363;28;20191;-83
2023/09/20 11:45:11;;;;;;;7.10;3.10;;;;;;;-143.21;37.23;70274.06;5025272;28;20194;-82
2023/09/20 11:47:45;;;;;;;9.57;3.28;;;;;;;-143.21;37.22;70274.06;5023165;28;20689;-82
2023/09/20 11:50:16;;;;;;;9.15;3.10;;;;;;;-143.21;37.15;70278.03;5027953;28;20227;-82
2023/09/20 11:52:50;;;;;;;8.73;3.17;;;;;;;-143.21;37.24;70264.16;5021905;28;20306;-83